Airfield :
LOGIN :

Register | Disclaimer

   EN    FR    IT 

 










Legend :    VFR   Marginal VFR   IFR   Intensive IFR   Very Intensive IFR
Visi :
Ceiling :
>= 8 km
>= 3000ft
5 to 8 km
1000 to 3000 ft
1500m to 5 km
500 to 1000 ft
800 to 1500m
200 to 500 ft
< 800m
< 200 ft
Symbols :   Thunderstorms  Fog  Heavy snow  Heavy precipitations  Wind > 20 kt
SIGMETs :     Misc.  Thunderstorms  Icing  Turbulence  Mountain Waves  Volcanic Ashes






- Airport Elevation : 288 ft
- IATA code : BZZ


EGVN - RAF Brize Norton

CURRENT METAR :
  • 190650Z 04010KT 9999 BKN020 13/08 Q1021 NOSIG RMK WHT WHT

EXPIRED METARs :
  • 190620Z AUTO 05011KT 9999 OVC018/// 12/08 Q1021
  • 190550Z 05011KT 9999 OVC018 12/08 Q1020 NOSIG RMK WHT WHT
  • 190520Z 05011KT 9999 OVC016 12/08 Q1020 NOSIG RMK WHT WHT
  • 190450Z 04009KT 9999 OVC016 12/09 Q1020 NOSIG RMK WHT WHT
  • 190420Z 05010KT 9999 OVC015 12/08 Q1020 TEMPO BKN014 RMK WHT TEMPO GRN
  • 190350Z 05008KT 9999 OVC015 12/09 Q1019 BECMG BKN014 RMK WHT BECMG GRN
  • 190320Z 04010KT 9999 BKN016 12/09 Q1019 BECMG BKN012 RMK WHT BECMG GRN
  • 190250Z 05011KT 9999 BKN018 13/09 Q1019 BECMG BKN014 RMK WHT BECMG GRN
  • 190220Z 03010KT 9999 BKN016 13/10 Q1019 TEMPO BKN014 RMK WHT TEMPO GRN

TAF TAF EGVN
Valid from the 19 at 06:00 until the 20 at 06:00 UTC


190418Z 1906/2006 05010KT 9999 BKN015
PROB30 1906/1907 BKN014
BECMG 1907/1909 SCT030



MET'MAP, your aeronautical weather chart ! - Copyright ORBIFLY December 2007 - Disclaimer

ORBIFLY MET'MAP TEAM :

Programming & Development : Alexandra Zaïnal
Original concept : Baudouin d'Aumeries
Technical & hardware support : Manuel Goepfert
Assistance : Marc-Olivier Méhu




SOURCES & CREDITS :

   NOAA